createdAt,value
2018-07-04T00:00:31.928Z,0.00
2018-07-04T00:01:31.855Z,0.00
2018-07-04T00:02:31.764Z,0.00
2018-07-04T00:03:31.687Z,0.00
2018-07-04T00:04:31.613Z,0.00
2018-07-04T00:05:31.540Z,0.00
2018-07-04T00:06:31.467Z,0.00
2018-07-04T00:07:31.374Z,0.00
2018-07-04T00:08:31.300Z,0.00
2018-07-04T00:09:31.222Z,0.00
2018-07-04T00:10:31.148Z,0.00
2018-07-04T00:11:31.063Z,0.00
2018-07-04T00:12:30.988Z,0.00
2018-07-04T00:13:30.911Z,0.00
2018-07-04T00:14:30.836Z,0.00
2018-07-04T00:15:30.754Z,0.00
2018-07-04T00:16:30.680Z,0.00
2018-07-04T00:17:30.602Z,0.00
2018-07-04T00:18:30.527Z,0.00
2018-07-04T00:19:30.447Z,0.00
2018-07-04T00:20:30.360Z,0.00
2018-07-04T00:21:30.305Z,0.00
2018-07-04T00:22:30.216Z,0.00
2018-07-04T00:23:30.140Z,0.00
2018-07-04T00:24:30.052Z,0.00
2018-07-04T00:25:29.974Z,0.00
2018-07-04T00:26:29.899Z,0.00
2018-07-04T00:27:29.830Z,0.00
2018-07-04T00:28:29.741Z,0.00
2018-07-04T00:29:29.661Z,0.00
2018-07-04T00:30:29.587Z,0.00
2018-07-04T00:31:29.515Z,0.00
2018-07-04T00:32:29.429Z,0.00
2018-07-04T00:33:29.356Z,0.00
2018-07-04T00:34:29.281Z,0.00
2018-07-04T00:35:29.202Z,0.00
2018-07-04T00:36:29.128Z,0.00
2018-07-04T00:37:29.041Z,0.00
2018-07-04T00:38:28.966Z,0.00
2018-07-04T00:39:28.887Z,0.00
2018-07-04T00:40:28.801Z,0.00
2018-07-04T00:41:28.728Z,0.00
2018-07-04T00:42:28.653Z,0.00
2018-07-04T00:43:28.582Z,0.00
2018-07-04T00:44:28.495Z,0.00
2018-07-04T00:45:28.415Z,0.00
2018-07-04T00:46:28.355Z,0.00
2018-07-04T00:47:28.269Z,0.00
2018-07-04T00:48:28.183Z,0.00
2018-07-04T00:49:28.115Z,0.00
2018-07-04T00:50:28.031Z,0.00
2018-07-04T00:51:27.952Z,0.00
2018-07-04T00:52:27.877Z,0.00
2018-07-04T00:53:27.795Z,0.00
2018-07-04T00:54:27.720Z,0.00
2018-07-04T00:55:27.641Z,0.00
2018-07-04T00:56:27.554Z,0.00
2018-07-04T00:57:27.477Z,0.00
2018-07-04T00:58:27.402Z,0.00
2018-07-04T00:59:27.332Z,0.00
2018-07-04T01:00:27.244Z,0.00
2018-07-04T01:01:27.165Z,0.00
2018-07-04T01:02:27.090Z,0.00
2018-07-04T01:03:27.019Z,0.00
2018-07-04T01:04:26.932Z,0.00
2018-07-04T01:05:26.860Z,0.00
2018-07-04T01:06:26.785Z,0.00
2018-07-04T01:07:26.706Z,0.00
2018-07-04T01:08:26.617Z,0.00
2018-07-04T01:09:26.545Z,0.00
2018-07-04T01:10:26.471Z,0.00
2018-07-04T01:11:26.391Z,0.00
2018-07-04T01:12:26.305Z,0.00
2018-07-04T01:13:26.232Z,0.00
2018-07-04T01:14:26.157Z,0.00
2018-07-04T01:15:26.073Z,0.00
2018-07-04T01:16:25.998Z,0.00
2018-07-04T01:17:25.922Z,0.00
2018-07-04T01:18:25.874Z,0.00
2018-07-04T01:19:25.757Z,0.00
2018-07-04T01:20:25.682Z,0.00
2018-07-04T01:21:25.605Z,0.00
2018-07-04T01:22:25.530Z,0.00
2018-07-04T01:23:25.446Z,0.00
2018-07-04T01:24:25.372Z,0.00
2018-07-04T01:25:25.294Z,0.00
2018-07-04T01:26:25.218Z,0.00
2018-07-04T01:27:25.136Z,0.00
2018-07-04T01:28:25.062Z,0.00
2018-07-04T01:29:24.985Z,0.00
2018-07-04T01:30:24.897Z,0.00
2018-07-04T01:31:24.817Z,0.00
2018-07-04T01:32:24.742Z,0.00
2018-07-04T01:33:24.672Z,0.00
2018-07-04T01:34:24.585Z,0.00
2018-07-04T01:35:24.506Z,0.00
2018-07-04T01:36:24.432Z,0.00
2018-07-04T01:37:24.347Z,0.00
2018-07-04T01:38:24.270Z,0.00
2018-07-04T01:39:24.214Z,0.00
2018-07-04T01:40:24.124Z,0.00
2018-07-04T01:41:24.032Z,0.00
2018-07-04T01:42:23.956Z,0.00
2018-07-04T01:43:23.886Z,0.00
2018-07-04T01:44:23.802Z,0.00
2018-07-04T01:45:23.725Z,0.00
2018-07-04T01:46:23.650Z,0.00
2018-07-04T01:47:23.571Z,0.00
2018-07-04T01:48:23.492Z,0.00
2018-07-04T01:49:23.417Z,0.00
2018-07-04T01:50:23.339Z,0.00
2018-07-04T01:51:23.260Z,0.00
2018-07-04T01:52:23.173Z,0.00
2018-07-04T01:53:23.094Z,0.00
2018-07-04T01:54:23.019Z,0.00
2018-07-04T01:55:22.937Z,0.00
2018-07-04T01:56:22.862Z,0.00
2018-07-04T01:57:22.786Z,0.00
2018-07-04T01:58:22.963Z,0.00
2018-07-04T01:59:22.627Z,0.00
2018-07-04T02:00:22.552Z,0.00
2018-07-04T02:01:22.488Z,0.00
2018-07-04T02:02:22.388Z,0.00
2018-07-04T02:03:22.309Z,0.00
2018-07-04T02:04:22.236Z,0.00
2018-07-04T02:05:22.152Z,0.00
2018-07-04T02:06:22.089Z,0.00
2018-07-04T02:07:21.996Z,0.00
2018-07-04T02:08:21.921Z,0.00
2018-07-04T02:09:21.851Z,0.00
2018-07-04T02:10:21.762Z,0.00
2018-07-04T02:11:21.691Z,0.00
2018-07-04T02:12:21.605Z,0.00
2018-07-04T02:13:21.522Z,0.00
2018-07-04T02:14:21.451Z,0.00
2018-07-04T02:15:21.365Z,0.00
2018-07-04T02:16:21.293Z,0.00
2018-07-04T02:17:21.216Z,0.00
2018-07-04T02:18:21.143Z,0.00
2018-07-04T02:19:21.053Z,0.00
2018-07-04T02:20:20.975Z,0.00
2018-07-04T02:21:20.902Z,0.00
2018-07-04T02:22:20.815Z,0.00
2018-07-04T02:23:20.737Z,0.00
2018-07-04T02:24:20.662Z,0.00
2018-07-04T02:25:20.576Z,0.00
2018-07-04T02:26:20.500Z,0.00
2018-07-04T02:27:20.429Z,0.00
2018-07-04T02:28:20.344Z,0.00
2018-07-04T02:29:20.261Z,0.00
2018-07-04T02:30:20.188Z,0.00
2018-07-04T02:31:20.105Z,0.00
2018-07-04T02:32:20.029Z,0.00
2018-07-04T02:33:20.107Z,0.00
2018-07-04T02:34:19.880Z,0.00
2018-07-04T02:35:19.789Z,0.00
2018-07-04T02:36:19.716Z,0.00
2018-07-04T02:37:19.645Z,0.00
2018-07-04T02:38:19.806Z,0.00
2018-07-04T02:39:19.476Z,0.00
2018-07-04T02:40:19.402Z,0.00
2018-07-04T02:41:19.313Z,0.00
2018-07-04T02:42:19.238Z,0.00
2018-07-04T02:43:19.176Z,0.00
2018-07-04T02:44:19.079Z,0.00
2018-07-04T02:45:19.003Z,0.00
2018-07-04T02:46:18.941Z,0.00
2018-07-04T02:47:18.844Z,5.63
2018-07-04T02:48:19.073Z,5.63
2018-07-04T02:49:18.693Z,5.63
2018-07-04T02:50:18.606Z,5.63
2018-07-04T02:51:18.526Z,5.63
2018-07-04T02:52:18.451Z,5.63
2018-07-04T02:53:18.372Z,5.63
2018-07-04T02:54:18.294Z,5.63
2018-07-04T02:55:18.215Z,5.63
2018-07-04T02:56:18.127Z,5.63
2018-07-04T02:57:18.066Z,5.63
2018-07-04T02:58:17.992Z,11.25
2018-07-04T02:59:17.896Z,11.25
2018-07-04T03:00:17.823Z,11.25
2018-07-04T03:01:17.740Z,11.25
2018-07-04T03:02:17.668Z,11.25
2018-07-04T03:03:17.582Z,11.25
2018-07-04T03:04:17.507Z,11.25
2018-07-04T03:05:17.421Z,11.25
2018-07-04T03:06:17.347Z,16.88
2018-07-04T03:07:17.273Z,16.88
2018-07-04T03:08:17.182Z,16.88
2018-07-04T03:09:17.109Z,16.88
2018-07-04T03:10:17.037Z,16.88
2018-07-04T03:11:16.947Z,16.88
2018-07-04T03:12:16.868Z,16.88
2018-07-04T03:13:17.097Z,16.88
2018-07-04T03:14:16.716Z,22.50
2018-07-04T03:15:16.633Z,22.50
2018-07-04T03:16:16.560Z,22.50
2018-07-04T03:17:16.469Z,22.50
2018-07-04T03:18:16.394Z,22.50
2018-07-04T03:19:16.312Z,22.50
2018-07-04T03:20:16.236Z,22.50
2018-07-04T03:21:16.158Z,28.13
2018-07-04T03:22:16.084Z,28.13
2018-07-04T03:23:16.244Z,28.13
2018-07-04T03:24:15.919Z,28.13
2018-07-04T03:25:15.830Z,28.13
2018-07-04T03:26:15.755Z,28.13
2018-07-04T03:27:15.684Z,28.13
2018-07-04T03:28:15.898Z,28.13
2018-07-04T03:29:15.525Z,33.75
2018-07-04T03:30:15.450Z,33.75
2018-07-04T03:31:15.357Z,33.75
2018-07-04T03:32:15.283Z,33.75
2018-07-04T03:33:15.210Z,33.75
2018-07-04T03:34:15.123Z,33.75
2018-07-04T03:35:15.045Z,33.75
2018-07-04T03:36:14.958Z,39.38
2018-07-04T03:37:14.883Z,39.38
2018-07-04T03:38:15.064Z,39.38
2018-07-04T03:39:14.726Z,39.38
2018-07-04T03:40:14.652Z,39.38
2018-07-04T03:41:14.573Z,39.38
2018-07-04T03:42:14.485Z,39.38
2018-07-04T03:43:14.413Z,39.38
2018-07-04T03:44:14.338Z,45.00
2018-07-04T03:45:14.250Z,45.00
2018-07-04T03:46:14.176Z,45.00
2018-07-04T03:47:14.095Z,45.00
2018-07-04T03:48:14.008Z,45.00
2018-07-04T03:49:13.939Z,45.00
2018-07-04T03:50:13.864Z,45.00
2018-07-04T03:51:13.774Z,50.63
2018-07-04T03:52:13.700Z,50.63
2018-07-04T03:53:13.620Z,50.63
2018-07-04T03:54:13.535Z,50.63
2018-07-04T03:55:13.463Z,50.63
2018-07-04T03:56:13.387Z,50.63
2018-07-04T03:57:13.300Z,50.63
2018-07-04T03:58:13.224Z,50.63
2018-07-04T03:59:13.138Z,50.63
2018-07-04T04:00:13.063Z,56.25
2018-07-04T04:01:12.993Z,56.25
2018-07-04T04:02:12.905Z,56.25
2018-07-04T04:03:12.824Z,56.25
2018-07-04T04:04:12.750Z,56.25
2018-07-04T04:05:12.664Z,56.25
2018-07-04T04:06:12.589Z,56.25
2018-07-04T04:07:12.531Z,56.25
2018-07-04T04:08:12.424Z,61.88
2018-07-04T04:09:12.351Z,61.88
2018-07-04T04:10:12.276Z,61.88
2018-07-04T04:11:12.192Z,61.88
2018-07-04T04:12:12.117Z,61.88
2018-07-04T04:13:12.038Z,61.88
2018-07-04T04:14:11.951Z,61.88
2018-07-04T04:15:11.880Z,61.88
2018-07-04T04:16:11.811Z,67.50
2018-07-04T04:17:11.716Z,67.50
2018-07-04T04:18:11.648Z,67.50
2018-07-04T04:19:11.574Z,67.50
2018-07-04T04:20:11.475Z,67.50
2018-07-04T04:21:11.408Z,67.50
2018-07-04T04:22:11.331Z,67.50
2018-07-04T04:23:11.238Z,67.50
2018-07-04T04:24:11.177Z,73.13
2018-07-04T04:25:11.090Z,73.13
2018-07-04T04:26:11.001Z,73.13
2018-07-04T04:27:10.967Z,73.13
2018-07-04T04:28:10.854Z,73.13
2018-07-04T04:29:10.765Z,78.75
2018-07-04T04:30:10.690Z,78.75
2018-07-04T04:31:10.619Z,78.75
2018-07-04T04:32:10.532Z,78.75
2018-07-04T04:33:10.455Z,78.75
2018-07-04T04:34:10.380Z,84.38
2018-07-04T04:35:10.289Z,90.00
2018-07-04T04:36:10.213Z,90.00
2018-07-04T04:37:10.145Z,90.00
2018-07-04T04:38:10.060Z,90.00
2018-07-04T04:39:09.979Z,90.00
2018-07-04T04:40:09.903Z,106.88
2018-07-04T04:41:09.815Z,118.13
2018-07-04T04:42:09.752Z,135.00
2018-07-04T04:43:09.668Z,135.00
2018-07-04T04:44:09.593Z,135.00
2018-07-04T04:45:09.502Z,140.63
2018-07-04T04:46:09.427Z,140.63
2018-07-04T04:47:09.357Z,140.63
2018-07-04T04:48:09.269Z,146.25
2018-07-04T04:49:09.195Z,146.25
2018-07-04T04:50:09.121Z,146.25
2018-07-04T04:51:09.042Z,151.88
2018-07-04T04:52:08.956Z,151.88
2018-07-04T04:53:08.882Z,157.50
2018-07-04T04:54:08.808Z,157.50
2018-07-04T04:55:08.728Z,157.50
2018-07-04T04:56:08.642Z,157.50
2018-07-04T04:57:08.580Z,151.88
2018-07-04T04:58:08.492Z,146.25
2018-07-04T04:59:08.421Z,129.38
2018-07-04T05:00:08.346Z,123.75
2018-07-04T05:01:08.281Z,112.50
2018-07-04T05:02:08.193Z,106.88
2018-07-04T05:03:08.111Z,112.50
2018-07-04T05:04:08.047Z,112.50
2018-07-04T05:05:07.964Z,112.50
2018-07-04T05:06:07.884Z,118.13
2018-07-04T05:07:07.805Z,118.13
2018-07-04T05:08:07.730Z,118.13
2018-07-04T05:09:07.660Z,112.50
2018-07-04T05:10:07.585Z,112.50
2018-07-04T05:11:07.494Z,118.13
2018-07-04T05:12:07.421Z,118.13
2018-07-04T05:13:07.345Z,118.13
2018-07-04T05:14:07.280Z,118.13
2018-07-04T05:15:07.196Z,118.13
2018-07-04T05:16:07.121Z,118.13
2018-07-04T05:17:07.043Z,118.13
2018-07-04T05:18:06.980Z,118.13
2018-07-04T05:19:06.885Z,118.13
2018-07-04T05:20:06.812Z,118.13
2018-07-04T05:21:06.739Z,118.13
2018-07-04T05:22:06.662Z,118.13
2018-07-04T05:23:06.583Z,118.13
2018-07-04T05:24:06.509Z,118.13
2018-07-04T05:25:06.436Z,123.75
2018-07-04T05:26:06.361Z,123.75
2018-07-04T05:27:06.282Z,123.75
2018-07-04T05:28:06.194Z,123.75
2018-07-04T05:29:06.121Z,123.75
2018-07-04T05:30:06.046Z,123.75
2018-07-04T05:31:05.997Z,123.75
2018-07-04T05:32:05.900Z,123.75
2018-07-04T05:33:05.825Z,123.75
2018-07-04T05:34:05.751Z,123.75
2018-07-04T05:35:05.698Z,123.75
2018-07-04T05:36:05.778Z,123.75
2018-07-04T05:37:05.511Z,123.75
2018-07-04T05:38:05.433Z,123.75
2018-07-04T05:39:05.363Z,123.75
2018-07-04T05:40:05.290Z,129.38
2018-07-04T05:41:05.211Z,129.38
2018-07-04T05:42:05.194Z,129.38
2018-07-04T05:43:05.065Z,129.38
2018-07-04T05:44:04.979Z,129.38
2018-07-04T05:45:04.900Z,135.00
2018-07-04T05:46:04.851Z,135.00
2018-07-04T05:47:04.748Z,135.00
2018-07-04T05:48:04.671Z,135.00
2018-07-04T05:49:04.600Z,135.00
2018-07-04T05:50:04.526Z,140.63
2018-07-04T05:51:04.447Z,140.63
2018-07-04T05:52:04.372Z,140.63
2018-07-04T05:53:04.287Z,140.63
2018-07-04T05:54:04.212Z,140.63
2018-07-04T05:55:04.145Z,140.63
2018-07-04T05:56:04.076Z,140.63
2018-07-04T05:57:03.987Z,140.63
2018-07-04T05:58:03.910Z,140.63
2018-07-04T05:59:03.840Z,140.63
2018-07-04T06:00:03.764Z,146.25
2018-07-04T06:01:03.701Z,146.25
2018-07-04T06:02:03.605Z,146.25
2018-07-04T06:03:03.525Z,146.25
2018-07-04T06:04:03.451Z,146.25
2018-07-04T06:05:03.382Z,146.25
2018-07-04T06:06:03.304Z,146.25
2018-07-04T06:07:03.225Z,146.25
2018-07-04T06:08:03.150Z,151.88
2018-07-04T06:09:03.114Z,146.25
2018-07-04T06:10:02.999Z,146.25
2018-07-04T06:11:02.917Z,151.88
2018-07-04T06:12:02.841Z,151.88
2018-07-04T06:13:02.769Z,146.25
2018-07-04T06:14:02.689Z,146.25
2018-07-04T06:15:02.634Z,146.25
2018-07-04T06:16:02.544Z,146.25
2018-07-04T06:17:02.528Z,146.25
2018-07-04T06:18:02.393Z,146.25
2018-07-04T06:19:02.345Z,146.25
2018-07-04T06:20:02.239Z,146.25
2018-07-04T06:21:02.167Z,146.25
2018-07-04T06:22:02.080Z,151.88
2018-07-04T06:23:02.000Z,157.50
2018-07-04T06:24:01.938Z,151.88
2018-07-04T06:25:01.853Z,151.88
2018-07-04T06:26:01.777Z,157.50
2018-07-04T06:27:01.707Z,151.88
2018-07-04T06:28:01.646Z,151.88
2018-07-04T06:29:01.550Z,151.88
2018-07-04T06:30:01.477Z,157.50
2018-07-04T06:31:01.406Z,157.50
2018-07-04T06:32:01.358Z,157.50
2018-07-04T06:33:01.257Z,157.50
2018-07-04T06:34:01.183Z,163.13
2018-07-04T06:35:01.106Z,163.13
2018-07-04T06:36:01.030Z,163.13
2018-07-04T06:37:00.971Z,163.13
2018-07-04T06:38:00.881Z,168.75
2018-07-04T06:39:00.835Z,168.75
2018-07-04T06:40:00.729Z,168.75
2018-07-04T06:41:00.642Z,174.38
2018-07-04T06:42:00.570Z,174.38
2018-07-04T06:43:00.497Z,174.38
2018-07-04T06:44:00.426Z,174.38
2018-07-04T06:45:00.341Z,174.38
2018-07-04T06:46:00.266Z,180.00
2018-07-04T06:47:00.196Z,180.00
2018-07-04T06:48:00.121Z,180.00
2018-07-04T06:49:00.144Z,185.63
2018-07-04T06:49:59.972Z,185.63
2018-07-04T06:50:59.893Z,191.25
2018-07-04T06:51:59.818Z,191.25
2018-07-04T06:52:59.748Z,196.88
2018-07-04T06:53:59.672Z,196.88
2018-07-04T06:54:59.594Z,208.13
2018-07-04T06:55:59.519Z,202.50
2018-07-04T06:56:59.480Z,202.50
2018-07-04T06:57:59.367Z,208.13
2018-07-04T06:58:59.296Z,208.13
2018-07-04T06:59:59.222Z,213.75
2018-07-04T07:00:59.147Z,213.75
2018-07-04T07:01:59.127Z,219.38
2018-07-04T07:02:59.000Z,219.38
2018-07-04T07:03:58.924Z,225.00
2018-07-04T07:04:58.847Z,225.00
2018-07-04T07:05:58.772Z,225.00
2018-07-04T07:06:58.693Z,230.63
2018-07-04T07:07:58.618Z,230.63
2018-07-04T07:08:58.547Z,230.63
2018-07-04T07:09:58.473Z,236.25
2018-07-04T07:10:58.393Z,236.25
2018-07-04T07:11:58.319Z,236.25
2018-07-04T07:12:58.245Z,236.25
2018-07-04T07:13:58.171Z,241.88
2018-07-04T07:14:58.100Z,241.88
2018-07-04T07:15:58.025Z,241.88
2018-07-04T07:16:57.945Z,247.50
2018-07-04T07:17:57.872Z,247.50
2018-07-04T07:18:57.799Z,247.50
2018-07-04T07:19:57.724Z,253.13
2018-07-04T07:20:57.650Z,247.50
2018-07-04T07:21:57.576Z,247.50
2018-07-04T07:22:57.498Z,253.13
2018-07-04T07:23:57.423Z,253.13
2018-07-04T07:24:57.362Z,253.13
2018-07-04T07:25:57.302Z,258.75
2018-07-04T07:26:57.211Z,253.13
2018-07-04T07:27:57.135Z,258.75
2018-07-04T07:28:57.070Z,258.75
2018-07-04T07:29:56.997Z,270.00
2018-07-04T07:30:56.925Z,275.63
2018-07-04T07:31:56.841Z,281.25
2018-07-04T07:32:56.763Z,275.63
2018-07-04T07:33:56.718Z,275.63
2018-07-04T07:34:56.614Z,275.63
2018-07-04T07:35:56.541Z,281.25
2018-07-04T07:36:56.476Z,281.25
2018-07-04T07:37:56.402Z,275.63
2018-07-04T07:38:56.321Z,281.25
2018-07-04T07:39:56.246Z,281.25
2018-07-04T07:40:56.172Z,292.50
2018-07-04T07:41:56.099Z,286.88
2018-07-04T07:42:56.027Z,286.88
2018-07-04T07:43:55.964Z,292.50
2018-07-04T07:44:55.890Z,309.38
2018-07-04T07:45:55.816Z,376.88
2018-07-04T07:46:55.737Z,421.88
2018-07-04T07:47:55.664Z,438.75
2018-07-04T07:48:55.604Z,450.00
2018-07-04T07:49:55.527Z,455.63
2018-07-04T07:50:55.449Z,461.25
2018-07-04T07:51:55.385Z,466.88
2018-07-04T07:52:55.312Z,466.88
2018-07-04T07:53:55.238Z,495.00
2018-07-04T07:54:55.180Z,540.00
2018-07-04T07:55:55.106Z,579.38
2018-07-04T07:56:55.038Z,607.50
2018-07-04T07:57:54.963Z,635.63
2018-07-04T07:58:54.905Z,646.88
2018-07-04T07:59:54.833Z,680.63
2018-07-04T08:00:54.778Z,708.75
2018-07-04T08:01:54.696Z,731.25
2018-07-04T08:02:54.624Z,759.38
2018-07-04T08:03:54.561Z,810.00
2018-07-04T08:04:54.492Z,883.13
2018-07-04T08:05:54.487Z,984.38
2018-07-04T08:06:54.380Z,1096.88
2018-07-04T08:07:54.288Z,1186.88
2018-07-04T08:08:54.225Z,1299.38
2018-07-04T08:09:54.175Z,1456.88
2018-07-04T08:10:54.091Z,1726.88
2018-07-04T08:11:54.029Z,2160.00
2018-07-04T08:12:53.963Z,2728.13
2018-07-04T08:13:53.905Z,2902.50
2018-07-04T08:14:53.830Z,2806.88
2018-07-04T08:15:53.768Z,2835.00
2018-07-04T08:16:53.707Z,2700.00
2018-07-04T08:17:53.646Z,2716.88
2018-07-04T08:18:53.609Z,2947.50
2018-07-04T08:19:53.502Z,3071.25
2018-07-04T08:20:53.447Z,3341.25
2018-07-04T08:21:53.382Z,3605.63
2018-07-04T08:22:53.313Z,3088.13
2018-07-04T08:23:53.239Z,2311.88
2018-07-04T08:24:53.178Z,1631.25
2018-07-04T08:25:53.115Z,1096.88
2018-07-04T08:26:53.058Z,720.00
2018-07-04T08:27:53.008Z,573.75
2018-07-04T08:28:52.931Z,517.50
2018-07-04T08:29:52.866Z,500.63
2018-07-04T08:30:52.796Z,500.63
2018-07-04T08:31:52.769Z,500.63
2018-07-04T08:32:52.668Z,500.63
2018-07-04T08:33:52.608Z,506.25
2018-07-04T08:34:52.553Z,506.25
2018-07-04T08:35:52.482Z,506.25
2018-07-04T08:36:52.423Z,506.25
2018-07-04T08:37:52.359Z,511.88
2018-07-04T08:38:52.297Z,511.88
2018-07-04T08:39:52.219Z,517.50
2018-07-04T08:40:52.153Z,523.13
2018-07-04T08:41:52.090Z,528.75
2018-07-04T08:42:52.033Z,534.38
2018-07-04T08:43:51.969Z,540.00
2018-07-04T08:44:51.905Z,551.25
2018-07-04T08:45:51.845Z,556.88
2018-07-04T08:46:51.790Z,568.13
2018-07-04T08:47:51.723Z,579.38
2018-07-04T08:48:51.659Z,590.63
2018-07-04T08:49:51.595Z,601.88
2018-07-04T08:50:51.602Z,618.75
2018-07-04T08:51:51.455Z,635.63
2018-07-04T08:52:51.413Z,658.13
2018-07-04T08:53:51.336Z,680.63
2018-07-04T08:54:51.269Z,703.13
2018-07-04T08:55:51.207Z,725.63
2018-07-04T08:56:51.145Z,736.88
2018-07-04T08:57:51.080Z,748.13
2018-07-04T08:58:51.023Z,753.75
2018-07-04T08:59:50.960Z,765.00
2018-07-04T09:00:50.894Z,776.25
2018-07-04T09:01:50.831Z,787.50
2018-07-04T09:02:50.772Z,793.13
2018-07-04T09:03:50.710Z,804.38
2018-07-04T09:04:50.650Z,815.63
2018-07-04T09:05:50.588Z,826.88
2018-07-04T09:06:50.520Z,855.00
2018-07-04T09:07:50.459Z,888.75
2018-07-04T09:08:50.419Z,928.13
2018-07-04T09:09:50.335Z,995.63
2018-07-04T09:10:50.270Z,1046.25
2018-07-04T09:11:50.247Z,1085.63
2018-07-04T09:12:50.148Z,1119.38
2018-07-04T09:13:50.084Z,1181.25
2018-07-04T09:14:50.026Z,1451.25
2018-07-04T09:15:49.964Z,1749.38
2018-07-04T09:16:49.896Z,1918.13
2018-07-04T09:17:49.835Z,2075.63
2018-07-04T09:18:49.776Z,2154.38
2018-07-04T09:19:49.718Z,2098.13
2018-07-04T09:20:49.649Z,2199.38
2018-07-04T09:21:49.592Z,2289.38
2018-07-04T09:22:49.820Z,2216.25
2018-07-04T09:23:49.458Z,2092.50
2018-07-04T09:24:49.401Z,2143.13
2018-07-04T09:25:49.339Z,2261.25
2018-07-04T09:26:49.272Z,2244.38
2018-07-04T09:27:49.214Z,2266.88
2018-07-04T09:28:49.146Z,2362.50
2018-07-04T09:29:49.084Z,2373.75
2018-07-04T09:30:49.025Z,2373.75
2018-07-04T09:31:48.964Z,2413.13
2018-07-04T09:32:48.896Z,2390.63
2018-07-04T09:33:48.834Z,2446.88
2018-07-04T09:34:48.776Z,2469.38
2018-07-04T09:35:48.714Z,2610.00
2018-07-04T09:36:48.655Z,2863.13
2018-07-04T09:37:48.591Z,3228.75
2018-07-04T09:38:48.524Z,3301.88
2018-07-04T09:39:48.462Z,2896.88
2018-07-04T09:40:48.401Z,2739.38
2018-07-04T09:41:48.340Z,2902.50
2018-07-04T09:42:48.273Z,3217.50
2018-07-04T09:43:48.219Z,3515.63
2018-07-04T09:44:48.150Z,3453.75
2018-07-04T09:45:48.088Z,3206.25
2018-07-04T09:46:48.029Z,3037.50
2018-07-04T09:47:48.023Z,2851.88
2018-07-04T09:48:47.917Z,2745.00
2018-07-04T09:49:47.855Z,2660.63
2018-07-04T09:50:47.789Z,2683.13
2018-07-04T09:51:47.725Z,2671.88
2018-07-04T09:52:47.662Z,2655.00
2018-07-04T09:53:47.599Z,2671.88
2018-07-04T09:54:47.544Z,2716.88
2018-07-04T09:55:47.478Z,2739.38
2018-07-04T09:56:47.414Z,2773.13
2018-07-04T09:57:47.351Z,2812.50
2018-07-04T09:58:47.345Z,2835.00
2018-07-04T09:59:47.243Z,2891.25
2018-07-04T10:00:47.167Z,2896.88
2018-07-04T10:01:47.105Z,2930.63
2018-07-04T10:02:47.049Z,2958.75
2018-07-04T10:03:46.990Z,2998.13
2018-07-04T10:04:46.941Z,3031.88
2018-07-04T10:05:46.873Z,3065.63
2018-07-04T10:06:46.800Z,3076.88
2018-07-04T10:07:46.738Z,3088.13
2018-07-04T10:08:46.677Z,3093.75
2018-07-04T10:09:46.616Z,3082.50
2018-07-04T10:10:46.556Z,2761.88
2018-07-04T10:11:46.495Z,1530.00
2018-07-04T10:12:46.430Z,528.75
2018-07-04T10:13:46.364Z,315.00
2018-07-04T10:14:46.304Z,286.88
2018-07-04T10:15:46.243Z,281.25
2018-07-04T10:16:46.182Z,281.25
2018-07-04T10:17:46.120Z,281.25
2018-07-04T10:18:46.053Z,281.25
2018-07-04T10:19:45.991Z,281.25
2018-07-04T10:20:45.932Z,286.88
2018-07-04T10:21:45.872Z,286.88
2018-07-04T10:22:45.803Z,286.88
2018-07-04T10:23:45.741Z,292.50
2018-07-04T10:24:45.677Z,292.50
2018-07-04T10:25:45.602Z,292.50
2018-07-04T10:26:45.544Z,292.50
2018-07-04T10:27:45.494Z,292.50
2018-07-04T10:28:45.435Z,292.50
2018-07-04T10:29:45.355Z,292.50
2018-07-04T10:30:45.286Z,292.50
2018-07-04T10:31:45.224Z,298.13
2018-07-04T10:32:45.157Z,298.13
2018-07-04T10:33:45.095Z,298.13
2018-07-04T10:34:45.018Z,298.13
2018-07-04T10:35:44.953Z,298.13
2018-07-04T10:36:44.896Z,298.13
2018-07-04T10:37:44.821Z,298.13
2018-07-04T10:38:44.754Z,298.13
2018-07-04T10:39:44.692Z,298.13
2018-07-04T10:40:44.620Z,298.13
2018-07-04T10:41:44.556Z,298.13
2018-07-04T10:42:44.503Z,315.00
2018-07-04T10:43:44.435Z,348.75
2018-07-04T10:44:44.408Z,551.25
2018-07-04T10:45:44.299Z,1113.75
2018-07-04T10:46:44.234Z,1456.88
2018-07-04T10:47:44.171Z,1665.00
2018-07-04T10:48:44.103Z,1816.88
2018-07-04T10:49:44.036Z,1828.13
2018-07-04T10:50:43.975Z,1845.00
2018-07-04T10:51:43.900Z,1839.38
2018-07-04T10:52:43.837Z,1839.38
2018-07-04T10:53:43.774Z,1963.13
2018-07-04T10:54:43.697Z,4230.00
2018-07-04T10:55:43.631Z,6288.75
2018-07-04T10:56:43.572Z,5563.13
2018-07-04T10:57:43.507Z,4545.00
2018-07-04T10:58:43.450Z,4348.13
2018-07-04T10:59:43.388Z,4798.13
2018-07-04T11:00:43.332Z,4770.00
2018-07-04T11:01:43.269Z,4753.13
2018-07-04T11:02:43.199Z,4466.25
2018-07-04T11:03:43.335Z,4629.38
2018-07-04T11:04:43.076Z,4702.50
2018-07-04T11:06:25.136Z,4556.25
2018-07-04T11:07:25.069Z,4792.50
2018-07-04T11:08:25.007Z,4696.88
2018-07-04T11:09:24.947Z,4325.63
2018-07-04T11:10:24.884Z,4455.00
2018-07-04T11:11:24.873Z,4685.63
2018-07-04T11:12:24.765Z,4522.50
2018-07-04T11:13:24.708Z,4584.38
2018-07-04T11:14:24.646Z,4893.75
2018-07-04T11:15:24.588Z,4809.38
2018-07-04T11:16:24.525Z,4882.50
2018-07-04T11:17:24.465Z,4995.00
2018-07-04T11:18:24.403Z,4933.13
2018-07-04T11:19:24.335Z,4837.50
2018-07-04T11:20:24.273Z,4933.13
2018-07-04T11:21:24.215Z,4983.75
2018-07-04T11:22:24.189Z,4809.38
2018-07-04T11:23:24.088Z,4876.88
2018-07-04T11:24:24.024Z,4888.13
2018-07-04T11:25:23.972Z,4983.75
2018-07-04T11:26:23.909Z,4961.25
2018-07-04T11:27:23.854Z,4753.13
2018-07-04T11:28:23.841Z,4719.38
2018-07-04T11:29:23.725Z,4910.63
2018-07-04T11:30:23.661Z,4905.00
2018-07-04T11:31:23.603Z,4955.63
2018-07-04T11:32:23.540Z,4753.13
2018-07-04T11:33:23.487Z,4578.75
2018-07-04T11:34:23.426Z,4612.50
2018-07-04T11:35:23.359Z,4618.13
2018-07-04T11:36:23.299Z,4837.50
2018-07-04T11:37:23.252Z,5107.50
2018-07-04T11:38:23.212Z,4871.25
2018-07-04T11:39:23.110Z,4775.63
2018-07-04T11:40:23.060Z,4820.63
2018-07-04T11:41:23.000Z,4927.50
2018-07-04T11:42:22.937Z,4860.00
2018-07-04T11:43:22.880Z,4910.63
2018-07-04T11:44:22.817Z,5163.75
2018-07-04T11:45:22.749Z,5175.00
2018-07-04T11:46:22.687Z,4888.13
2018-07-04T11:47:22.639Z,4876.88
2018-07-04T11:48:22.579Z,5107.50
2018-07-04T11:49:22.517Z,5118.75
2018-07-04T11:50:22.456Z,4989.38
2018-07-04T11:51:22.388Z,5034.38
2018-07-04T11:52:22.326Z,5073.75
2018-07-04T11:53:22.285Z,5011.88
2018-07-04T11:54:22.218Z,4905.00
2018-07-04T11:55:22.152Z,4848.75
2018-07-04T11:56:22.089Z,4972.50
2018-07-04T11:57:22.029Z,4966.88
2018-07-04T11:58:21.962Z,4927.50
2018-07-04T11:59:21.918Z,4876.88
2018-07-04T12:00:21.855Z,4770.00
2018-07-04T12:01:21.793Z,4826.25
2018-07-04T12:02:21.728Z,4871.25
2018-07-04T12:03:21.668Z,4950.00
2018-07-04T12:04:21.607Z,4893.75
2018-07-04T12:05:21.591Z,4944.38
2018-07-04T12:06:21.492Z,4910.63
2018-07-04T12:07:21.426Z,4831.88
2018-07-04T12:08:21.363Z,4910.63
2018-07-04T12:09:21.307Z,4921.88
2018-07-04T12:10:21.246Z,4966.88
2018-07-04T12:11:21.190Z,4933.13
2018-07-04T12:12:21.129Z,4483.13
2018-07-04T12:13:21.064Z,4370.63
2018-07-04T12:14:21.002Z,4730.63
2018-07-04T12:15:20.956Z,4618.13
2018-07-04T12:16:20.882Z,4635.00
2018-07-04T12:17:20.830Z,4606.88
2018-07-04T12:18:20.767Z,4635.00
2018-07-04T12:19:20.711Z,4725.00
2018-07-04T12:20:20.659Z,4640.63
2018-07-04T12:21:20.583Z,4404.38
2018-07-04T12:22:20.519Z,4471.88
2018-07-04T12:23:20.453Z,4550.63
2018-07-04T12:24:20.403Z,4578.75
2018-07-04T12:25:20.344Z,4674.38
2018-07-04T12:26:20.283Z,4713.75
2018-07-04T12:27:20.217Z,4494.38
2018-07-04T12:28:20.153Z,4173.75
2018-07-04T12:29:20.093Z,4426.88
2018-07-04T12:30:20.031Z,4741.88
2018-07-04T12:31:19.973Z,4635.00
2018-07-04T12:32:19.922Z,4663.13
2018-07-04T12:33:19.857Z,4494.38
2018-07-04T12:34:19.795Z,4275.00
2018-07-04T12:35:19.734Z,4584.38
2018-07-04T12:36:19.670Z,4798.13